< < Back
Terminal Aerodrome Forecast


Current Version              Previous Versions:   1  2  3  4  5  6  7  8  9  

Terminal Aerodrome Forecast

722
FTUS44 KOHX 221700
TAFBNA
TAF
KBNA 221720Z 2218/2318 18005KT P6SM SCT030 SCT050=

Latest METAR

874
SAUS70 KWBC 221700 RRE
MTRBNA
METAR KBNA 221653Z 15006KT 10SM SCT036 BKN055 BKN200 31/21 A3011 RMK AO2
SLP187 T03110211 $


USA.gov is the U.S. government's official web portal to all federal, state and local government web resources and services.